Avon, North Carolina
Current Conditions -  °F | °C
As of 8:51 AM on Saturday 25 Oct 2014 (Local Time) from KHSE Reporting Station
Clear Clear  
Wind Chill: 61°   Ceiling: Unl
Heat Index: 61°   Visibility: 10mi
Dew Point: 56°   Wind: 3mph
Humidity: 83%   Direction: NA
Pressure: 29.98"   Gusts: NA
Location:  35.35°N, 75.51°W
Report Text: KHSE 251251Z AUTO VRB03KT 10SM CLR 16/13 A2998 RMK AO2 SLP152 T01610133 TSNO
Loading
Personal Weather Stations






























Interactive Weather Map
Tropical Storm Tracking
New forecast layout! Learn more

10-Day Weather Forecast

Advertisements
Track Severe Weather on mobile